Time;durP1;ratioP1;P1;durP2;ratioP2;P2;SDS_P1;SDS_P2;PMS_P1;PMS_P2;Temp;Humidity;BMP_temperature;BMP_pressure;BME280_temperature;BME280_humidity;BME280_pressure;Samples;Min_cycle;Max_cycle;Signal;HPM_P1;HPM_P2
2023/04/09 00:02:21;;;;;;;17.57;8.93;;;;;;;-141.97;86.29;47755.50;5052422;28;20189;-87
2023/04/09 00:04:46;;;;;;;18.47;9.43;;;;;;;-141.97;87.09;47661.31;5055957;28;20193;-85
2023/04/09 00:07:12;;;;;;;17.07;9.47;;;;;;;-141.97;86.72;47786.25;5053914;28;20236;-85
2023/04/09 00:09:37;;;;;;;16.97;9.47;;;;;;;-141.97;87.79;47734.34;5058912;28;20228;-85
2023/04/09 00:12:02;;;;;;;17.73;8.90;;;;;;;-141.97;87.01;47580.59;5069635;28;20177;-85
2023/04/09 00:14:28;;;;;;;18.57;9.37;;;;;;;-141.97;87.33;47588.28;5055843;28;20176;-85
2023/04/09 00:16:53;;;;;;;17.83;9.87;;;;;;;-141.97;88.34;47669.00;5055968;28;20222;-86
2023/04/09 00:19:19;;;;;;;18.33;9.80;;;;;;;-141.97;88.09;47747.81;5055829;28;20228;-85
2023/04/09 00:21:45;;;;;;;18.67;9.30;;;;;;;-141.97;88.95;47709.38;5055847;28;20166;-85
2023/04/09 00:24:10;;;;;;;17.93;8.97;;;;;;;-141.97;89.15;47724.75;5055591;28;20181;-85
2023/04/09 00:26:36;;;;;;;16.97;9.10;;;;;;;-141.97;89.52;47588.28;5054587;28;20197;-86
2023/04/09 00:29:01;;;;;;;19.77;8.77;;;;;;;-141.97;89.24;47622.88;5055261;28;20611;-87
2023/04/09 00:31:26;;;;;;;20.20;9.57;;;;;;;-141.97;88.80;47690.16;5054959;28;20162;-85
2023/04/09 00:33:52;;;;;;;18.20;9.17;;;;;;;-141.97;88.80;47670.91;5057716;28;20252;-84
2023/04/09 00:36:17;;;;;;;20.27;9.07;;;;;;;-141.97;88.60;47686.31;5060211;28;20192;-85
2023/04/09 00:38:42;;;;;;;17.47;9.10;;;;;;;-141.97;89.08;47813.16;5053652;28;20268;-85
2023/04/09 00:41:08;;;;;;;17.00;9.13;;;;;;;-141.97;88.65;47647.84;5054470;28;20284;-85
2023/04/09 00:43:33;;;;;;;17.77;9.13;;;;;;;-141.97;89.36;47657.47;5055220;28;20244;-85
2023/04/09 00:45:59;;;;;;;17.57;8.83;;;;;;;-141.97;89.69;47605.56;5078839;28;20209;-85
2023/04/09 00:48:25;;;;;;;18.40;9.30;;;;;;;-141.97;89.26;47732.44;5079875;28;20173;-85
2023/04/09 00:50:50;;;;;;;18.97;9.30;;;;;;;-141.97;88.86;47740.13;5062315;28;20235;-85
2023/04/09 00:53:16;;;;;;;19.33;9.60;;;;;;;-141.97;89.57;47630.56;5053503;28;20177;-85
2023/04/09 00:55:42;;;;;;;19.93;10.10;;;;;;;-141.97;90.54;47703.59;5054093;28;20627;-86
2023/04/09 00:58:07;;;;;;;18.67;9.10;;;;;;;-141.97;90.38;47717.06;5054397;28;20173;-85
2023/04/09 01:00:33;;;;;;;18.47;9.27;;;;;;;-141.97;90.28;47703.59;5054956;28;20253;-85
2023/04/09 01:02:59;;;;;;;19.60;9.00;;;;;;;-141.97;90.84;47680.53;5055558;28;20227;-86
2023/04/09 01:05:37;;;;;;;18.80;9.27;;;;;;;-141.97;90.92;47682.47;5070019;28;20165;-85
2023/04/09 01:08:07;;;;;;;20.13;9.60;;;;;;;-141.97;91.78;47682.47;5054969;28;20199;-86
2023/04/09 01:10:49;;;;;;;18.90;9.67;;;;;;;-141.97;92.15;47695.91;5054373;28;20199;-86
2023/04/09 01:13:22;;;;;;;18.40;9.40;;;;;;;-141.97;92.36;47743.97;5073315;28;20172;-86
2023/04/09 01:15:54;;;;;;;19.57;9.77;;;;;;;-141.97;92.50;47632.47;5055759;28;20173;-86
2023/04/09 01:18:47;;;;;;;21.67;9.80;;;;;;;-141.97;92.69;47672.84;5054652;28;20167;-86
2023/04/09 01:21:16;;;;;;;20.03;9.30;;;;;;;-141.97;92.43;47678.63;5053191;28;20322;-86
2023/04/09 01:24:00;;;;;;;21.63;10.37;;;;;;;-141.97;92.15;47665.16;5053833;28;20164;-86
2023/04/09 01:26:44;;;;;;;23.43;10.23;;;;;;;-141.97;93.05;47694.00;5053383;28;20236;-87
2023/04/09 01:29:10;;;;;;;20.40;9.87;;;;;;;-141.97;94.10;47699.75;5053799;28;20169;-87
2023/04/09 01:31:37;;;;;;;23.30;10.27;;;;;;;-141.97;94.67;47705.53;5068635;28;20180;-86
2023/04/09 01:34:05;;;;;;;23.17;10.73;;;;;;;-141.97;94.47;47699.75;5066018;28;20173;-86
2023/04/09 01:36:32;;;;;;;21.87;10.63;;;;;;;-141.97;94.21;47694.00;5062663;28;20200;-86
2023/04/09 01:39:01;;;;;;;21.77;10.73;;;;;;;-141.97;94.84;47713.22;5054282;28;21017;-86
2023/04/09 01:41:29;;;;;;;22.70;11.13;;;;;;;-141.97;94.80;47672.84;5053926;28;20406;-87
2023/04/09 01:43:55;;;;;;;23.43;11.23;;;;;;;-141.97;95.31;47624.78;5055301;28;20447;-86
2023/04/09 01:46:22;;;;;;;22.83;11.00;;;;;;;-141.97;95.26;47682.47;5056022;28;20557;-86
2023/04/09 01:48:48;;;;;;;22.17;10.77;;;;;;;-141.97;95.62;47672.84;5053364;28;20462;-86
2023/04/09 01:51:14;;;;;;;23.93;11.77;;;;;;;-141.97;95.53;47649.78;5053221;28;20404;-86
2023/04/09 01:53:40;;;;;;;25.77;11.80;;;;;;;-141.97;95.42;47682.47;5053259;28;20912;-86
2023/04/09 01:56:06;;;;;;;24.70;11.47;;;;;;;-141.97;95.36;47695.91;5053546;28;20165;-85
2023/04/09 01:58:33;;;;;;;24.73;10.87;;;;;;;-141.97;95.73;47511.38;5051530;28;20412;-86
2023/04/09 02:01:17;;;;;;;23.40;10.83;;;;;;;-141.97;95.85;47644.00;5052774;28;20256;-86
2023/04/09 02:03:55;;;;;;;22.07;10.73;;;;;;;-141.97;95.16;47695.91;5053112;28;20431;-86
2023/04/09 02:06:33;;;;;;;24.57;10.97;;;;;;;-141.97;94.48;47711.28;5054501;28;20541;-86
2023/04/09 02:09:00;;;;;;;20.97;10.30;;;;;;;-141.97;94.28;47697.84;5055694;28;20479;-89
2023/04/09 02:11:28;;;;;;;23.00;10.77;;;;;;;-141.97;94.30;47607.50;5063429;28;20420;-90
2023/04/09 02:13:55;;;;;;;21.37;10.53;;;;;;;-141.97;94.35;47780.47;5053183;28;20434;-90
2023/04/09 02:16:22;;;;;;;21.40;11.13;;;;;;;-141.97;93.84;47605.56;5053021;28;20495;-90
2023/04/09 02:18:53;;;;;;;21.17;10.90;;;;;;;-141.97;93.33;47682.47;5052660;28;20626;-90
2023/04/09 02:21:18;;;;;;;22.03;10.83;;;;;;;-141.97;92.98;47659.38;5052538;28;20403;-89
2023/04/09 02:23:44;;;;;;;20.87;10.50;;;;;;;-141.97;92.82;47663.22;5051214;28;20519;-90
2023/04/09 02:26:09;;;;;;;20.37;10.20;;;;;;;-141.97;93.34;47640.16;5049557;28;20226;-90
2023/04/09 02:28:34;;;;;;;20.60;9.80;;;;;;;-141.97;92.85;47592.13;5051400;28;20181;-89
2023/04/09 02:31:00;;;;;;;20.80;10.60;;;;;;;-141.97;92.76;47803.56;5053146;28;20165;-90
2023/04/09 02:33:25;;;;;;;20.37;10.50;;;;;;;-141.97;92.20;47630.56;5052112;28;20192;-90
2023/04/09 02:35:50;;;;;;;20.40;10.07;;;;;;;-141.97;92.09;47695.91;5050918;28;20181;-90
2023/04/09 02:38:16;;;;;;;20.77;10.47;;;;;;;-141.97;91.78;47580.59;5050707;28;20173;-89
2023/04/09 02:40:41;;;;;;;20.33;10.10;;;;;;;-141.97;91.77;47790.09;5052026;28;20303;-90
2023/04/09 02:43:08;;;;;;;23.33;11.17;;;;;;;-141.97;91.19;47655.53;5052339;28;20204;-89
2023/04/09 02:45:34;;;;;;;21.77;10.20;;;;;;;-141.97;91.34;47622.88;5052199;28;20227;-90
2023/04/09 02:47:59;;;;;;;22.37;11.00;;;;;;;-141.97;91.68;47736.28;5050629;28;20197;-89
2023/04/09 02:50:24;;;;;;;20.73;10.30;;;;;;;-141.97;91.92;47588.28;5050391;28;20603;-90
2023/04/09 02:52:50;;;;;;;21.63;10.77;;;;;;;-141.97;91.43;47570.97;5050471;28;20698;-89
2023/04/09 02:55:15;;;;;;;22.70;11.00;;;;;;;-141.97;91.78;47651.69;5050681;28;20169;-89
2023/04/09 02:57:41;;;;;;;21.67;11.07;;;;;;;-141.97;91.63;47759.34;5050796;28;20192;-89
2023/04/09 03:00:07;;;;;;;23.00;11.50;;;;;;;-141.97;91.66;47713.22;5051751;28;20166;-89
2023/04/09 03:02:32;;;;;;;21.70;10.50;;;;;;;-141.97;91.98;47595.97;5052418;28;20200;-90
2023/04/09 03:04:58;;;;;;;21.80;10.97;;;;;;;-141.97;91.99;47680.53;5052023;28;20563;-89
2023/04/09 03:07:23;;;;;;;24.60;11.73;;;;;;;-141.97;92.33;47776.63;5052027;28;20735;-89
2023/04/09 03:12:16;;;;;;;25.20;12.40;;;;;;;-141.97;93.91;47736.28;5055307;28;20227;-88
2023/04/09 03:14:41;;;;;;;27.57;14.00;;;;;;;-141.97;94.62;47622.88;5044570;28;20461;-88
2023/04/09 03:17:07;;;;;;;31.47;15.80;;;;;;;-141.97;95.23;47678.63;5031123;28;20182;-89
2023/04/09 03:19:32;;;;;;;27.90;13.40;;;;;;;-141.97;95.67;47703.59;5059993;28;20205;-86
2023/04/09 03:21:58;;;;;;;28.70;14.40;;;;;;;-141.97;95.86;47672.84;5057428;28;20182;-89
2023/04/09 03:24:23;;;;;;;30.83;14.90;;;;;;;-141.97;96.14;47820.84;5031048;28;20590;-90
2023/04/09 03:26:48;;;;;;;32.43;15.23;;;;;;;-141.97;95.72;47657.47;5030518;28;20296;-90
2023/04/09 03:29:14;;;;;;;33.93;15.43;;;;;;;-141.97;96.13;47757.41;5047273;28;20256;-90
2023/04/09 03:31:39;;;;;;;29.90;14.67;;;;;;;-141.97;95.57;47649.78;5031414;28;20166;-90
2023/04/09 03:34:04;;;;;;;32.67;15.17;;;;;;;-141.97;95.67;47626.72;5030312;28;20177;-89
2023/04/09 03:36:30;;;;;;;36.77;16.30;;;;;;;-141.97;94.64;47611.34;5030207;28;20178;-89
2023/04/09 03:38:56;;;;;;;34.60;15.80;;;;;;;-141.97;94.74;47624.78;5032915;28;20257;-89
2023/04/09 03:41:21;;;;;;;35.17;17.07;;;;;;;-141.97;95.04;47692.06;5035216;28;20193;-89
2023/04/09 03:43:46;;;;;;;37.57;16.87;;;;;;;-141.97;95.49;47765.09;5034442;28;20174;-89
2023/04/09 03:46:13;;;;;;;37.60;17.23;;;;;;;-141.97;95.21;47657.47;5034010;28;20724;-89
2023/04/09 03:48:38;;;;;;;37.87;17.93;;;;;;;-141.97;95.42;47705.53;5033853;28;20223;-89
2023/04/09 03:51:04;;;;;;;43.57;19.63;;;;;;;-141.97;95.26;47576.75;5036105;28;20412;-89
2023/04/09 03:53:30;;;;;;;51.27;22.07;;;;;;;-141.97;95.44;47743.97;5048357;28;20638;-88
2023/04/09 03:55:55;;;;;;;54.37;25.13;;;;;;;-141.97;95.33;47730.50;5053294;28;20240;-88
2023/04/09 03:58:20;;;;;;;41.63;20.13;;;;;;;-141.97;95.39;47667.06;5037952;28;20170;-89
2023/04/09 04:00:46;;;;;;;40.13;18.73;;;;;;;-141.97;94.86;47738.19;5035551;28;20202;-89
2023/04/09 04:03:13;;;;;;;44.47;22.70;;;;;;;-141.97;94.59;47768.94;5053373;28;20204;-89
2023/04/09 04:05:39;;;;;;;41.83;20.27;;;;;;;-141.97;94.94;47553.69;5039969;28;20577;-89
2023/04/09 04:08:04;;;;;;;41.23;19.10;;;;;;;-141.97;95.07;47753.56;5036259;28;20451;-90
2023/04/09 04:10:30;;;;;;;37.93;17.43;;;;;;;-141.97;94.70;47688.22;5035019;28;20602;-89
2023/04/09 04:12:55;;;;;;;41.03;18.00;;;;;;;-141.97;94.09;47688.22;5032959;28;20175;-90
2023/04/09 04:15:20;;;;;;;37.40;17.40;;;;;;;-141.97;93.63;47715.13;5018039;28;20174;-89
2023/04/09 04:17:46;;;;;;;37.03;16.77;;;;;;;-141.97;93.40;47807.41;5015486;28;20177;-88
2023/04/09 04:20:11;;;;;;;36.70;17.20;;;;;;;-141.97;92.50;47651.69;5014773;28;20171;-89
2023/04/09 04:22:37;;;;;;;38.27;17.07;;;;;;;-141.97;92.90;47815.09;5014077;28;20197;-89
2023/04/09 04:25:03;;;;;;;39.67;17.20;;;;;;;-141.97;93.01;47630.56;5014935;28;20175;-90
2023/04/09 04:27:29;;;;;;;38.70;17.97;;;;;;;-141.97;92.54;47749.72;5013543;28;20285;-89
2023/04/09 04:30:00;;;;;;;42.83;19.27;;;;;;;-141.97;92.37;47799.72;5013462;28;20508;-90
2023/04/09 04:32:26;;;;;;;37.70;18.10;;;;;;;-141.97;92.25;47699.75;5014805;28;20280;-89
2023/04/09 04:34:51;;;;;;;36.47;17.00;;;;;;;-141.97;91.80;47649.78;5012986;28;20680;-89
2023/04/09 04:37:17;;;;;;;34.17;16.87;;;;;;;-141.97;91.73;47624.78;5012966;28;20171;-90
2023/04/09 04:39:42;;;;;;;34.50;16.43;;;;;;;-141.97;91.43;47655.53;5013267;28;20277;-90
2023/04/09 04:42:08;;;;;;;37.10;16.23;;;;;;;-141.97;91.15;47609.41;5013500;28;20262;-89
2023/04/09 04:44:33;;;;;;;39.13;18.87;;;;;;;-141.97;90.61;47784.34;5012967;28;20508;-90
2023/04/09 04:46:58;;;;;;;35.47;18.23;;;;;;;-141.97;90.29;47699.75;5014212;28;20676;-88
2023/04/09 04:49:24;;;;;;;35.97;17.83;;;;;;;-141.97;89.41;47651.69;5012292;28;20170;-91
2023/04/09 04:51:49;;;;;;;35.87;18.17;;;;;;;-141.97;89.40;47740.13;5012886;28;20248;-91
2023/04/09 04:54:15;;;;;;;34.00;17.27;;;;;;;-141.97;89.29;47605.56;5013965;28;20671;-89
2023/04/09 04:56:40;;;;;;;30.80;16.03;;;;;;;-141.97;88.97;47653.63;5012741;28;20194;-89
2023/04/09 04:59:06;;;;;;;32.90;17.80;;;;;;;-141.97;89.12;47747.81;5014623;28;20175;-89
2023/04/09 05:01:31;;;;;;;35.67;17.93;;;;;;;-141.97;89.44;47799.72;5012924;28;20179;-89
2023/04/09 05:03:57;;;;;;;34.73;17.27;;;;;;;-141.97;89.78;47595.97;5013218;28;20175;-89
2023/04/09 05:06:22;;;;;;;31.97;16.67;;;;;;;-141.97;89.81;47695.91;5013040;28;20300;-90
2023/04/09 05:08:47;;;;;;;34.07;15.90;;;;;;;-141.97;89.72;47786.25;5014117;28;20608;-90
2023/04/09 05:11:15;;;;;;;34.80;16.07;;;;;;;-141.97;88.75;47663.22;5013769;28;20220;-90
2023/04/09 05:13:40;;;;;;;32.07;15.80;;;;;;;-141.97;88.47;47755.50;5015653;28;20174;-89
2023/04/09 05:16:06;;;;;;;34.00;15.43;;;;;;;-141.97;87.87;47536.38;5012896;28;20179;-90
2023/04/09 05:18:31;;;;;;;33.20;16.30;;;;;;;-141.97;87.53;47538.28;5012680;28;20187;-90
2023/04/09 05:20:57;;;;;;;32.80;15.87;;;;;;;-141.97;86.74;47820.84;5012874;28;20241;-90
2023/04/09 05:23:22;;;;;;;33.30;16.13;;;;;;;-141.97;86.56;47759.34;5013972;28;20217;-90
2023/04/09 05:25:49;;;;;;;30.07;14.60;;;;;;;-141.97;86.92;47718.97;5014419;28;20178;-90
2023/04/09 05:28:15;;;;;;;36.40;16.37;;;;;;;-141.97;86.28;47611.34;5013713;28;20163;-88
2023/04/09 05:30:44;;;;;;;31.83;15.27;;;;;;;-141.97;86.49;47770.88;5013817;28;20166;-89
2023/04/09 05:33:10;;;;;;;30.03;14.57;;;;;;;-141.97;85.79;47730.50;5014006;28;20642;-92
2023/04/09 05:35:38;;;;;;;31.20;14.47;;;;;;;-141.97;85.77;47642.09;5012151;28;20219;-91
2023/04/09 05:38:03;;;;;;;27.70;13.93;;;;;;;-141.97;85.21;47603.66;5013018;28;20195;-90
2023/04/09 05:40:28;;;;;;;28.97;14.47;;;;;;;-141.97;84.90;47661.31;5013626;28;20317;-90
2023/04/09 05:42:54;;;;;;;26.10;12.57;;;;;;;-141.97;84.41;47634.41;5017352;28;20167;-90
2023/04/09 05:45:19;;;;;;;31.37;13.20;;;;;;;-141.97;84.41;47692.06;5013997;28;20199;-89
2023/04/09 05:47:44;;;;;;;30.33;13.73;;;;;;;-141.97;83.70;47695.91;5013042;28;20195;-89
2023/04/09 05:50:10;;;;;;;27.07;13.53;;;;;;;-141.97;82.88;47655.53;5014283;28;20253;-89
2023/04/09 05:52:36;;;;;;;34.53;17.27;;;;;;;-141.97;83.54;47703.59;5012823;28;20179;-92
2023/04/09 05:55:01;;;;;;;47.20;26.20;;;;;;;-141.97;83.10;47830.47;5012585;28;20171;-89
2023/04/09 05:57:29;;;;;;;28.93;14.93;;;;;;;-141.97;82.75;47663.22;5016717;28;20179;-90
2023/04/09 05:59:55;;;;;;;22.20;11.60;;;;;;;-141.97;81.92;47590.19;5018496;28;20214;-88
2023/04/09 06:02:20;;;;;;;23.40;11.17;;;;;;;-141.97;82.93;47624.78;5014253;28;20551;-90
2023/04/09 06:04:45;;;;;;;28.73;15.93;;;;;;;-141.97;83.03;47619.03;5025746;28;20178;-89
2023/04/09 06:07:11;;;;;;;32.33;15.10;;;;;;;-141.97;82.54;47622.88;5018286;28;20670;-90
2023/04/09 06:09:37;;;;;;;28.33;14.47;;;;;;;-141.97;82.10;47634.41;5012453;28;20183;-88
2023/04/09 06:12:03;;;;;;;32.63;14.70;;;;;;;-141.97;80.71;47645.94;5020632;28;20218;-89
2023/04/09 06:14:31;;;;;;;27.53;13.20;;;;;;;-141.97;80.09;47667.06;5017673;28;20175;-89
2023/04/09 06:16:58;;;;;;;29.17;13.63;;;;;;;-141.97;81.31;47670.91;5011646;28;20200;-91
2023/04/09 06:19:23;;;;;;;31.00;13.60;;;;;;;-141.97;79.58;47682.47;5012908;28;20163;-89
2023/04/09 06:21:49;;;;;;;29.00;13.17;;;;;;;-141.97;79.59;47776.63;5030975;28;20170;-88
2023/04/09 06:24:14;;;;;;;31.97;13.37;;;;;;;-141.97;78.30;47613.25;5016006;28;20560;-90
2023/04/09 06:26:39;;;;;;;28.30;12.90;;;;;;;-141.97;74.66;47703.59;5012609;28;20292;-89
2023/04/09 06:29:05;;;;;;;25.57;12.03;;;;;;;-141.97;72.03;47826.63;5012615;28;20329;-90
2023/04/09 06:31:30;;;;;;;28.13;13.43;;;;;;;-141.97;71.42;47655.53;5013790;28;20167;-87
2023/04/09 06:33:56;;;;;;;25.33;12.17;;;;;;;-141.97;70.63;47692.06;5014443;28;20167;-86
2023/04/09 06:36:21;;;;;;;26.83;13.13;;;;;;;-141.97;70.27;47705.53;5018109;28;20182;-86
2023/04/09 06:38:47;;;;;;;27.87;13.37;;;;;;;-141.97;70.75;47734.34;5034266;28;20150;-85
2023/04/09 06:41:13;;;;;;;23.77;12.53;;;;;;;-141.97;71.97;47705.53;5013616;28;20557;-88
2023/04/09 06:43:39;;;;;;;23.37;12.67;;;;;;;-141.97;71.50;47751.66;5011663;28;20174;-88
2023/04/09 06:46:05;;;;;;;23.47;12.30;;;;;;;-141.97;71.45;47607.50;5011525;28;20296;-89
2023/04/09 06:48:30;;;;;;;25.30;12.97;;;;;;;-141.97;71.31;47644.00;5028127;28;20205;-89
2023/04/09 06:50:57;;;;;;;24.53;11.43;;;;;;;-141.97;71.08;47611.34;5039735;28;20194;-88
2023/04/09 06:53:22;;;;;;;23.83;12.03;;;;;;;-141.97;70.75;47726.66;5053299;28;20177;-89
2023/04/09 06:55:48;;;;;;;22.50;11.27;;;;;;;-141.97;70.89;47703.59;5053997;28;20185;-88
2023/04/09 06:58:13;;;;;;;21.40;11.40;;;;;;;-141.97;70.25;47638.25;5045218;28;20603;-88
2023/04/09 07:00:38;;;;;;;23.63;12.87;;;;;;;-141.97;69.38;47617.09;5035905;28;20179;-88
2023/04/09 07:03:06;;;;;;;22.27;11.70;;;;;;;-141.97;69.52;47803.56;5034035;28;20174;-88
2023/04/09 07:05:32;;;;;;;24.83;12.63;;;;;;;-141.97;68.82;47803.56;5032631;28;20196;-88
2023/04/09 07:07:57;;;;;;;23.43;12.47;;;;;;;-141.97;67.70;47813.16;5032149;28;20198;-87
2023/04/09 07:10:22;;;;;;;24.07;12.70;;;;;;;-141.97;66.31;47605.56;5032126;28;20533;-87
2023/04/09 07:12:48;;;;;;;20.67;11.90;;;;;;;-141.97;67.52;47820.84;5032342;28;20639;-88
2023/04/09 07:15:13;;;;;;;22.30;12.47;;;;;;;-141.97;67.75;47580.59;5031943;28;20729;-88
2023/04/09 07:17:39;;;;;;;20.80;12.03;;;;;;;-141.97;67.92;47674.78;5031608;28;20180;-89
2023/04/09 07:20:05;;;;;;;21.33;11.20;;;;;;;-141.97;68.17;47667.06;5037960;28;20173;-92
2023/04/09 07:22:30;;;;;;;19.77;11.13;;;;;;;-141.97;67.52;47574.81;5041730;28;20170;-91
2023/04/09 07:24:56;;;;;;;18.90;11.60;;;;;;;-141.97;66.29;47763.19;5032723;28;20181;-92
2023/04/09 07:27:23;;;;;;;20.63;11.30;;;;;;;-141.97;65.84;47622.88;5032309;28;20201;-88
2023/04/09 07:29:49;;;;;;;18.53;10.00;;;;;;;-141.97;64.71;47751.66;5031464;28;20205;-87
2023/04/09 07:32:15;;;;;;;14.87;8.83;;;;;;;-141.97;64.06;47622.88;5032054;28;20178;-92
2023/04/09 07:34:41;;;;;;;16.87;9.30;;;;;;;-141.97;62.49;47788.19;5030595;28;20559;-91
2023/04/09 07:37:07;;;;;;;24.30;13.90;;;;;;;-141.97;62.45;47701.69;5032062;28;20258;-91
2023/04/09 07:39:32;;;;;;;16.20;9.70;;;;;;;-141.97;62.44;47611.34;5030239;28;20210;-89
2023/04/09 07:42:01;;;;;;;13.37;8.70;;;;;;;-141.97;62.10;47822.78;5031637;28;20594;-90
2023/04/09 07:44:27;;;;;;;16.23;9.70;;;;;;;-141.97;61.39;47811.25;5030655;28;20177;-90
2023/04/09 07:46:52;;;;;;;14.33;8.97;;;;;;;-141.97;60.61;47805.47;5031120;28;20209;-90
2023/04/09 07:49:17;;;;;;;17.47;9.10;;;;;;;-141.97;60.29;47642.09;5030578;28;20213;-91
2023/04/09 07:51:43;;;;;;;11.70;7.70;;;;;;;-141.97;59.93;47682.47;5030514;28;20231;-91
2023/04/09 07:54:08;;;;;;;13.03;7.80;;;;;;;-141.97;61.18;47795.88;5031100;28;20170;-91
2023/04/09 07:56:34;;;;;;;15.47;8.83;;;;;;;-141.97;61.25;47749.72;5030425;28;20174;-90
2023/04/09 07:58:59;;;;;;;15.17;9.37;;;;;;;-141.97;60.04;47563.28;5029939;28;20646;-89
2023/04/09 08:01:25;;;;;;;15.43;9.00;;;;;;;-141.97;60.09;47609.41;5031578;28;20213;-89
2023/04/09 08:03:50;;;;;;;15.83;9.30;;;;;;;-141.97;60.86;47619.03;5030824;28;20205;-89
2023/04/09 08:06:16;;;;;;;13.43;9.00;;;;;;;-141.97;60.01;47601.72;5046644;28;20729;-90
2023/04/09 08:08:42;;;;;;;16.27;9.43;;;;;;;-141.97;58.82;47757.41;5031432;28;20174;-90
2023/04/09 08:11:07;;;;;;;14.20;8.57;;;;;;;-141.97;57.89;47795.88;5046305;28;20256;-89
2023/04/09 08:13:33;;;;;;;13.17;8.13;;;;;;;-141.97;56.26;47628.63;5033497;28;20273;-89
2023/04/09 08:16:02;;;;;;;19.23;12.50;;;;;;;-141.97;57.29;47574.81;5035114;28;20172;-90
2023/04/09 08:18:28;;;;;;;11.67;7.87;;;;;;;-141.97;56.53;47661.31;5028803;28;20634;-90
2023/04/09 08:20:55;;;;;;;12.73;8.37;;;;;;;-141.97;57.18;47580.59;5030929;28;20166;-90
2023/04/09 08:23:20;;;;;;;12.77;8.17;;;;;;;-141.97;56.71;47768.94;5031490;28;20783;-91
2023/04/09 08:25:45;;;;;;;16.60;10.37;;;;;;;-141.97;55.38;47574.81;5033392;28;20182;-90
2023/04/09 08:28:11;;;;;;;13.10;8.57;;;;;;;-141.97;54.57;47772.78;5032646;28;20886;-89
2023/04/09 08:30:36;;;;;;;12.47;8.10;;;;;;;-141.97;54.02;47565.22;5035061;28;20193;-90
2023/04/09 08:33:02;;;;;;;13.80;8.70;;;;;;;-141.97;53.97;47515.22;5033333;28;20181;-91
2023/04/09 08:35:29;;;;;;;14.73;9.27;;;;;;;-141.97;52.78;47765.09;5033059;28;20170;-89
2023/04/09 08:37:55;;;;;;;12.53;8.10;;;;;;;-141.97;53.64;47726.66;5034907;28;20200;-88
2023/04/09 08:40:21;;;;;;;11.67;7.83;;;;;;;-141.97;55.07;47701.69;5047144;28;20230;-88
2023/04/09 08:42:53;;;;;;;11.60;7.23;;;;;;;-141.97;54.13;47772.78;5046836;28;20166;-89
2023/04/09 08:45:19;;;;;;;11.13;7.40;;;;;;;-141.97;52.25;47542.16;5032502;28;20178;-88
2023/04/09 08:47:48;;;;;;;12.03;7.33;;;;;;;-141.97;50.65;47599.81;5034240;28;20683;-88
2023/04/09 08:50:13;;;;;;;12.63;7.77;;;;;;;-141.97;49.48;47818.94;5033880;28;20514;-89
2023/04/09 08:52:39;;;;;;;11.93;7.80;;;;;;;-141.97;50.06;47803.56;5033857;28;20212;-87
2023/04/09 08:55:06;;;;;;;10.50;7.43;;;;;;;-141.97;49.65;47599.81;5032771;28;20166;-86
2023/04/09 08:57:39;;;;;;;12.33;7.60;;;;;;;-141.97;48.12;47555.59;5038042;28;20163;-85
2023/04/09 09:00:06;;;;;;;10.90;7.70;;;;;;;-141.97;47.17;47645.94;5036919;28;20174;-87
2023/04/09 09:02:32;;;;;;;10.63;7.40;;;;;;;-141.97;46.13;47459.50;5033692;28;20638;-87
2023/04/09 09:05:01;;;;;;;12.57;7.90;;;;;;;-141.97;45.55;47588.28;5034396;28;20172;-89
2023/04/09 09:07:30;;;;;;;12.27;8.10;;;;;;;-141.97;46.83;47570.97;5032952;28;20260;-88
2023/04/09 09:10:04;;;;;;;10.47;7.70;;;;;;;-141.97;46.61;47561.38;5014153;28;20179;-87
2023/04/09 09:12:30;;;;;;;10.83;7.87;;;;;;;-141.97;46.76;47630.56;5013041;28;20170;-87
2023/04/09 09:14:56;;;;;;;12.70;8.23;;;;;;;-141.97;47.08;47619.03;5014261;28;20631;-86
2023/04/09 09:17:21;;;;;;;12.07;7.20;;;;;;;-141.97;48.08;47732.44;5013737;28;20290;-88
2023/04/09 09:19:47;;;;;;;11.77;7.93;;;;;;;-141.97;47.84;47695.91;5013813;28;20254;-88
2023/04/09 09:22:13;;;;;;;13.83;8.83;;;;;;;-141.97;47.29;47626.72;5024426;28;20197;-87
2023/04/09 09:24:50;;;;;;;13.13;8.70;;;;;;;-141.97;46.62;47686.31;5033020;28;20294;-88
2023/04/09 09:27:31;;;;;;;12.00;8.43;;;;;;;-141.97;46.39;47622.88;5015708;28;20233;-88
2023/04/09 09:29:56;;;;;;;11.67;8.80;;;;;;;-141.97;47.45;47607.50;5013954;28;20159;-89
2023/04/09 09:32:22;;;;;;;11.13;8.40;;;;;;;-141.97;46.53;47563.28;5014411;28;20523;-88
2023/04/09 09:35:06;;;;;;;11.87;8.60;;;;;;;-141.97;45.93;47740.13;5012977;28;20195;-89
2023/04/09 09:37:32;;;;;;;17.83;10.50;;;;;;;-141.97;44.96;47632.47;5012646;28;20178;-88
2023/04/09 09:39:59;;;;;;;13.87;9.83;;;;;;;-141.97;44.89;47590.19;5013987;28;20205;-89
2023/04/09 09:42:26;;;;;;;16.30;10.10;;;;;;;-141.97;45.37;47651.69;5012647;28;20187;-90
2023/04/09 09:44:53;;;;;;;12.53;8.63;;;;;;;-141.97;45.60;47632.47;5012635;28;20178;-89
2023/04/09 09:47:20;;;;;;;11.67;8.40;;;;;;;-141.97;44.65;47674.78;5012474;28;20226;-90
2023/04/09 09:49:50;;;;;;;15.27;9.40;;;;;;;-141.97;44.73;47634.41;5013523;28;20169;-89
2023/04/09 09:52:23;;;;;;;12.00;8.07;;;;;;;-141.97;45.36;47713.22;5013467;28;20251;-89
2023/04/09 09:54:52;;;;;;;10.97;8.37;;;;;;;-141.97;44.94;47530.59;5013573;28;20648;-89
2023/04/09 09:57:19;;;;;;;12.40;8.37;;;;;;;-141.97;43.87;47620.94;5014885;28;20163;-87
2023/04/09 09:59:53;;;;;;;10.03;7.77;;;;;;;-141.97;45.00;47620.94;5012882;28;20647;-88
2023/04/09 10:02:22;;;;;;;13.03;9.07;;;;;;;-141.97;44.84;47530.59;5011774;28;20625;-87
2023/04/09 10:04:52;;;;;;;13.47;9.03;;;;;;;-141.97;42.76;47630.56;5012955;28;20179;-88
2023/04/09 10:07:22;;;;;;;12.07;8.10;;;;;;;-141.97;43.22;47615.19;5012040;28;20252;-88
2023/04/09 10:09:50;;;;;;;12.30;8.00;;;;;;;-141.97;43.39;47522.91;5012029;28;20269;-89
2023/04/09 10:12:17;;;;;;;10.90;7.20;;;;;;;-141.97;42.63;47563.28;5013576;28;20242;-90
2023/04/09 10:14:44;;;;;;;12.27;8.17;;;;;;;-141.97;43.04;47776.63;5013752;28;20205;-88
2023/04/09 10:17:09;;;;;;;10.80;7.70;;;;;;;-141.97;42.26;47592.13;5019737;28;20171;-90
2023/04/09 10:19:41;;;;;;;10.20;6.90;;;;;;;-141.97;43.32;47501.78;5013333;28;20181;-89
2023/04/09 10:22:10;;;;;;;11.07;7.00;;;;;;;-141.97;43.89;47567.13;5011875;28;20186;-89
2023/04/09 10:24:36;;;;;;;9.93;7.10;;;;;;;-141.97;44.18;47715.13;5012413;28;20176;-89
2023/04/09 10:27:09;;;;;;;11.33;7.43;;;;;;;-141.97;43.29;47795.88;5013938;28;20694;-89
2023/04/09 10:29:50;;;;;;;9.93;7.00;;;;;;;-141.97;43.15;47584.44;5013246;28;20658;-91
2023/04/09 10:32:21;;;;;;;9.27;6.27;;;;;;;-141.97;43.99;47626.72;5012746;28;20246;-89
2023/04/09 10:34:48;;;;;;;12.07;7.93;;;;;;;-141.97;43.56;47586.34;5012556;28;20174;-89
2023/04/09 10:37:15;;;;;;;10.47;7.27;;;;;;;-141.97;43.69;47661.31;5020109;28;20178;-89
2023/04/09 10:39:49;;;;;;;8.27;6.27;;;;;;;-141.97;42.95;47811.25;5021665;28;20202;-90
2023/04/09 10:42:24;;;;;;;10.73;7.40;;;;;;;-141.97;43.78;47803.56;5006521;28;20229;-90
2023/04/09 10:45:10;;;;;;;8.37;6.07;;;;;;;-141.97;42.86;47609.41;5031587;28;20269;-89
2023/04/09 10:47:37;;;;;;;9.83;7.20;;;;;;;-141.97;44.77;47738.19;5020998;28;20208;-89
2023/04/09 10:50:25;;;;;;;9.97;7.07;;;;;;;-141.97;44.17;47669.00;5022877;28;20190;-89
2023/04/09 10:52:53;;;;;;;8.93;6.77;;;;;;;-141.97;44.53;47624.78;5032395;28;20165;-89
2023/04/09 11:07:00;;;;;;;9.27;5.50;;;;;;;-141.97;41.56;47745.88;5084993;27;1325797;-90
2023/04/09 11:09:26;;;;;;;7.20;5.30;;;;;;;-141.97;39.57;47788.19;5093081;28;20429;-90
2023/04/09 11:38:14;;;;;;;6.83;5.60;;;;;;;-141.97;37.23;47595.97;5129402;27;20545;-84
2023/04/09 11:40:46;;;;;;;7.87;5.50;;;;;;;-141.97;36.99;47651.69;5128200;28;20187;-83
2023/04/09 11:43:13;;;;;;;6.87;5.30;;;;;;;-141.97;36.40;47680.53;5129197;27;20220;-84
2023/04/09 11:45:39;;;;;;;6.40;5.00;;;;;;;-141.97;36.29;47592.13;5129243;27;20186;-83